01:05
Airports
History
Links
Donate
Help keep this website running!
PayPal
Bitcoin
This page is community maintained. The information is intended for PC simulator navigation or reference.
Always use approved charts for navigation.
98M
Greaton AirfieldEdited 30-Oct-2017
Greaton Airfield (98M)
Saco, Maine, United States (72456)
(U)
Lat/Lng:43° 34' 32.58" N / 70° 31' 7.89" W
43.575717 / -70.518858
Elevation:170'ft / 52mMSL
Declination:W015°
ID / ICAO:98M
FAA:98M
(Edited 2017-10-30) [ Sign in to Edit ]
Nearby Weather00:51 GMT 2018-02-18
Nearby weather at KPWM, Portland Intl Jetport located 11.6 nautical miles from 98M
Altimeter: 30.23
Visibility: 10.0 statute miles
Wind: 14 knots (from 180°)
Temp: 1°c / 34°f
Humidity: 64.1%

METAR: KPWM 180051Z 18014G25KT 10SM SCT031 01/M05 A3023 RMK AO2 SLP238 T00111050

(Powered by phpweather)
Nearby VORs <50NM
Nearby NDBs
Runways
No runway information submitted.

User Notes and Comments
43° 34' 32.58" N / 70° 31' 7.89" W
Distance To
Airport ID:
Nearby Airports
(R) Webster Field 7.0 NM
ME91 N
4 Oak Knoll 7.7 NM
ME49 E 82°
(U) Biddeford Muni 8.1 NM
B19 SSE 163°
(R) Scottow Bog Flightpark 8.5 NM
ME66 ENE 72°
(R) Super Cub Field 10.1 NM
ME26 NE 50°
(C) Portland Intl Jetport 11.6 NM
KPWM ( WX ) ENE 65°
(R) Back Acres 11.9 NM
ME46 SSE 162°
VFR Chart
Flight Planning at SkyVector.com